createdAt,value
2023-03-22T00:01:22.666Z,15
2023-03-22T00:06:22.657Z,19
2023-03-22T00:11:22.669Z,17
2023-03-22T00:16:22.670Z,20
2023-03-22T00:21:22.661Z,18
2023-03-22T00:31:22.664Z,17
2023-03-22T00:36:22.676Z,19
2023-03-22T00:41:22.677Z,22
2023-03-22T00:46:22.679Z,20
2023-03-22T00:51:22.681Z,20
2023-03-22T00:56:22.670Z,18
2023-03-22T01:01:22.725Z,19
2023-03-22T01:06:22.673Z,14
2023-03-22T01:11:22.685Z,16
2023-03-22T01:16:22.686Z,16
2023-03-22T01:21:22.688Z,18
2023-03-22T01:26:22.690Z,19
2023-03-22T01:31:22.679Z,18
2023-03-22T01:36:22.691Z,22
2023-03-22T01:41:22.682Z,21
2023-03-22T01:46:22.694Z,20
2023-03-22T01:51:22.695Z,19
2023-03-22T01:56:22.685Z,19
2023-03-22T02:01:22.698Z,20
2023-03-22T02:06:22.687Z,18
2023-03-22T02:11:22.699Z,16
2023-03-22T02:16:22.700Z,20
2023-03-22T02:21:22.702Z,16
2023-03-22T02:26:22.703Z,15
2023-03-22T02:31:22.693Z,18
2023-03-22T02:36:22.771Z,14
2023-03-22T02:41:22.695Z,16
2023-03-22T02:46:22.707Z,16
2023-03-22T02:51:22.708Z,17
2023-03-22T02:56:22.698Z,20
2023-03-22T03:01:22.711Z,16
2023-03-22T03:06:22.700Z,21
2023-03-22T03:11:22.712Z,19
2023-03-22T03:16:22.702Z,16
2023-03-22T03:21:22.714Z,13
2023-03-22T03:26:22.715Z,21
2023-03-22T03:31:22.705Z,15
2023-03-22T03:36:22.717Z,15
2023-03-22T03:41:22.707Z,18
2023-03-22T03:46:22.719Z,22
2023-03-22T03:51:22.720Z,18
2023-03-22T03:56:22.721Z,19
2023-03-22T04:01:22.722Z,16
2023-03-22T04:06:22.712Z,25
2023-03-22T04:11:22.723Z,18
2023-03-22T04:16:22.713Z,16
2023-03-22T04:21:22.725Z,16
2023-03-22T04:26:22.726Z,21
2023-03-22T04:31:22.716Z,17
2023-03-22T04:36:22.728Z,23
2023-03-22T04:41:22.718Z,20
2023-03-22T04:46:22.729Z,19
2023-03-22T04:51:22.730Z,17
2023-03-22T04:56:22.731Z,18
2023-03-22T05:01:22.733Z,18
2023-03-22T05:06:22.722Z,17
2023-03-22T05:11:22.734Z,17
2023-03-22T05:16:22.724Z,22
2023-03-22T05:21:22.783Z,20
2023-03-22T05:26:22.736Z,17
2023-03-22T05:31:22.737Z,19
2023-03-22T05:36:22.738Z,16
2023-03-22T05:41:22.728Z,17
2023-03-22T05:46:22.739Z,15
2023-03-22T05:51:22.729Z,15
2023-03-22T05:56:22.741Z,19
2023-03-22T06:01:22.742Z,24
2023-03-22T06:06:22.732Z,23
2023-03-22T06:11:22.744Z,22
2023-03-22T06:16:22.733Z,20
2023-03-22T06:21:22.745Z,27
2023-03-22T06:26:22.746Z,22
2023-03-22T06:31:22.747Z,30
2023-03-22T06:36:22.748Z,19
2023-03-22T06:41:22.738Z,27
2023-03-22T06:46:22.750Z,22
2023-03-22T06:51:22.740Z,23
2023-03-22T06:56:22.751Z,29
2023-03-22T07:01:22.752Z,29
2023-03-22T07:06:22.742Z,19
2023-03-22T07:11:22.755Z,21
2023-03-22T07:16:22.744Z,28
2023-03-22T07:21:22.756Z,27
2023-03-22T07:26:22.757Z,21
2023-03-22T07:31:22.759Z,23
2023-03-22T07:36:22.760Z,24
2023-03-22T07:41:22.750Z,23
2023-03-22T07:46:22.763Z,28
2023-03-22T07:51:22.754Z,33
2023-03-22T07:56:22.767Z,31
2023-03-22T08:01:22.769Z,30
2023-03-22T08:06:22.760Z,29
2023-03-22T08:11:22.774Z,23
2023-03-22T08:16:22.775Z,18
2023-03-22T08:21:22.777Z,29
2023-03-22T08:26:22.768Z,32
2023-03-22T08:31:22.782Z,29
2023-03-22T08:36:22.784Z,30
2023-03-22T08:41:22.775Z,31
2023-03-22T08:46:22.839Z,32
2023-03-22T08:51:22.780Z,28
2023-03-22T08:56:22.793Z,35
2023-03-22T09:01:22.795Z,32
2023-03-22T09:06:22.798Z,33
2023-03-22T09:11:22.801Z,30
2023-03-22T09:16:22.792Z,30
2023-03-22T09:21:22.805Z,33
2023-03-22T09:26:22.797Z,27
2023-03-22T09:31:22.810Z,36
2023-03-22T09:36:22.813Z,36
2023-03-22T09:41:22.805Z,29
2023-03-22T09:46:22.819Z,37
2023-03-22T09:51:22.810Z,35
2023-03-22T09:56:22.823Z,31
2023-03-22T10:01:22.826Z,35
2023-03-22T10:06:22.828Z,40
2023-03-22T10:11:22.832Z,30
2023-03-22T10:16:22.823Z,31
2023-03-22T10:21:22.836Z,38
2023-03-22T10:26:22.828Z,34
2023-03-22T10:31:22.842Z,28
2023-03-22T10:36:22.844Z,41
2023-03-22T10:41:22.836Z,39
2023-03-22T10:46:22.850Z,33
2023-03-22T10:51:22.841Z,43
2023-03-22T10:56:22.855Z,42
2023-03-22T11:01:22.847Z,35
2023-03-22T11:06:22.860Z,43
2023-03-22T11:11:22.863Z,43
2023-03-22T11:16:22.854Z,44
2023-03-22T11:21:22.869Z,50
2023-03-22T11:26:22.860Z,57
2023-03-22T11:31:22.873Z,47
2023-03-22T11:36:22.876Z,45
2023-03-22T11:41:22.879Z,44
2023-03-22T11:46:22.882Z,50
2023-03-22T11:51:22.873Z,36
2023-03-22T11:56:22.887Z,44
2023-03-22T12:01:22.878Z,49
2023-03-22T12:06:22.892Z,42
2023-03-22T12:11:22.894Z,39
2023-03-22T12:16:22.886Z,45
2023-03-22T12:21:22.900Z,49
2023-03-22T12:26:22.892Z,37
2023-03-22T12:31:22.905Z,29
2023-03-22T12:36:22.908Z,31
2023-03-22T12:41:22.910Z,39
2023-03-22T12:46:22.913Z,36
2023-03-22T12:51:22.904Z,37
2023-03-22T12:56:22.944Z,35
2023-03-22T13:01:22.909Z,43
2023-03-22T13:06:22.923Z,48
2023-03-22T13:11:22.925Z,38
2023-03-22T13:16:22.927Z,30
2023-03-22T13:21:22.930Z,34
2023-03-22T13:26:22.921Z,48
2023-03-22T13:31:22.934Z,37
2023-03-22T13:36:22.926Z,36
2023-03-22T13:41:22.939Z,51
2023-03-22T13:46:22.941Z,28
2023-03-22T13:51:22.933Z,35
2023-03-22T13:56:22.947Z,33
2023-03-22T14:01:22.938Z,32
2023-03-22T14:06:22.951Z,27
2023-03-22T14:11:22.954Z,32
2023-03-22T14:16:22.957Z,34
2023-03-22T14:21:22.960Z,32
2023-03-22T14:56:22.977Z,39
2023-03-22T15:01:22.968Z,42
2023-03-22T15:06:22.981Z,54
2023-03-22T15:11:22.973Z,43
2023-03-22T15:16:22.986Z,49
2023-03-22T15:21:23.012Z,43
2023-03-22T15:26:22.979Z,47
2023-03-22T15:31:22.996Z,52
2023-03-22T15:36:22.984Z,45
2023-03-22T15:41:22.997Z,34
2023-03-22T15:46:22.999Z,40
2023-03-22T15:51:23.050Z,44
2023-03-22T15:56:23.004Z,38
2023-03-22T16:01:22.995Z,38
2023-03-22T16:06:23.008Z,38
2023-03-22T16:11:22.999Z,46
2023-03-22T16:16:23.012Z,34
2023-03-22T16:21:23.014Z,35
2023-03-22T16:26:23.005Z,37
2023-03-22T16:31:23.019Z,32
2023-03-22T16:36:23.010Z,42
2023-03-22T16:41:23.023Z,44
2023-03-22T16:46:23.025Z,37
2023-03-22T16:51:23.027Z,31
2023-03-22T16:56:23.029Z,51
2023-03-22T17:01:23.020Z,40
2023-03-22T17:06:23.033Z,39
2023-03-22T17:11:23.024Z,45
2023-03-22T17:16:23.037Z,36
2023-03-22T17:21:23.039Z,38
2023-03-22T17:26:23.030Z,35
2023-03-22T17:31:23.043Z,30
2023-03-22T17:36:23.034Z,28
2023-03-22T17:41:23.046Z,24
2023-03-22T17:46:23.048Z,27
2023-03-22T17:51:23.050Z,30
2023-03-22T17:56:23.052Z,23
2023-03-22T18:01:23.043Z,33
2023-03-22T18:06:23.106Z,31
2023-03-22T18:11:23.046Z,27
2023-03-22T18:16:23.059Z,32
2023-03-22T18:21:23.060Z,35
2023-03-22T18:26:23.062Z,19
2023-03-22T18:31:23.064Z,21
2023-03-22T18:36:23.054Z,28
2023-03-22T18:41:23.067Z,33
2023-03-22T18:46:23.057Z,30
2023-03-22T18:51:23.070Z,28
2023-03-22T18:56:23.071Z,23
2023-03-22T19:01:23.062Z,25
2023-03-22T19:06:23.075Z,22
2023-03-22T19:11:23.065Z,30
2023-03-22T19:16:23.077Z,20
2023-03-22T19:21:23.079Z,33
2023-03-22T19:26:23.080Z,25
2023-03-22T19:31:23.082Z,28
2023-03-22T19:36:23.072Z,29
2023-03-22T19:41:23.084Z,24
2023-03-22T19:46:23.075Z,20
2023-03-22T19:51:23.087Z,28
2023-03-22T19:56:23.088Z,26
2023-03-22T20:01:23.154Z,23
2023-03-22T20:06:23.092Z,23
2023-03-22T20:11:23.082Z,27
2023-03-22T20:16:23.094Z,23
2023-03-22T20:21:23.084Z,19
2023-03-22T20:26:23.097Z,24
2023-03-22T20:31:23.098Z,29
2023-03-22T20:36:23.088Z,24
2023-03-22T20:41:23.101Z,21
2023-03-22T20:46:23.091Z,22
2023-03-22T20:51:23.103Z,27
2023-03-22T20:56:23.104Z,22
2023-03-22T21:01:23.106Z,21
2023-03-22T21:06:23.108Z,16
2023-03-22T21:11:23.098Z,21
2023-03-22T21:16:23.110Z,23
2023-03-22T21:21:23.100Z,20
2023-03-22T21:26:23.112Z,19
2023-03-22T21:31:23.113Z,19
2023-03-22T21:36:23.104Z,21
2023-03-22T21:41:23.117Z,18
2023-03-22T21:46:23.106Z,21
2023-03-22T21:51:23.119Z,21
2023-03-22T21:56:23.120Z,21
2023-03-22T22:01:23.121Z,23
2023-03-22T22:06:23.123Z,16
2023-03-22T22:11:23.113Z,18
2023-03-22T22:16:23.125Z,16
2023-03-22T22:21:23.115Z,15
2023-03-22T22:26:23.175Z,17
2023-03-22T22:31:23.129Z,18
2023-03-22T22:36:23.130Z,20
2023-03-22T22:41:23.132Z,21
2023-03-22T22:46:23.122Z,22
2023-03-22T22:51:23.134Z,13
2023-03-22T22:56:23.135Z,18
2023-03-22T23:01:23.136Z,16
2023-03-22T23:06:23.137Z,18
2023-03-22T23:11:23.128Z,16
2023-03-22T23:16:23.141Z,19
2023-03-22T23:21:23.130Z,17
2023-03-22T23:26:23.142Z,18
2023-03-22T23:31:23.144Z,20
2023-03-22T23:36:23.145Z,22
2023-03-22T23:41:23.147Z,23
2023-03-22T23:46:23.137Z,15
2023-03-22T23:51:23.149Z,18
2023-03-22T23:56:23.139Z,15
